ソウル/仁川 の空港の天気 - METARとTAF

仁川国際空港 ( RKSI / ICN ) - 大韓民国 仁川広域市 (ソウル特別市近郊)
飛行場実況気象(Metar)
観測時間02/28 07:00 KST (02/27 22:00 UTC)
風向・風速南東 4m/s
視程10km以上
天気現象
なし
気温-1℃
湿度86%
気圧1026hPa
METARRKSI 272200Z 14007KT CAVOK M01/M03 Q1026 NOSIG
過去の天気等 Google飛行場航空写真 Wunderground天気予報

過去48時間のMETAR

飛行場予報(TAF)
発表時間: 2/28 02:00 KST (2/27 17:00 UTC)
予報対象時間: 28日3時 KST ~ 1日9時 KST
風向・風速南南東 3m/s
視程10km以上
なし
28日12時 KST ~ 28日13時 KST に徐々に
風向・風速南南西 5m/s
28日20時 KST ~ 28日21時 KST に徐々に
風向・風速南南東 3m/s
視程10km以上
全天の4割程度の雲 雲底高度 910m
全天の8割程度の雲 雲底高度 3,660m
1日0時 KST ~ 1日1時 KST に徐々に
視程4,200m
天気現象もや
1日6時 KST ~ 1日7時 KST に徐々に
視程7,000m
天気現象運行に影響にある天気現象が終了
TAF RKSI 271700Z 2718/2824 15005KT CAVOK TNM02/2721Z TX09/2805Z TN02/2821Z
BECMG 2803/2804 21010KT
BECMG 2811/2812 15005KT 9999 SCT030 BKN120
BECMG 2815/2816 4200 BR
BECMG 2821/2822 7000 NSW